Flight Track Log - Related Links

Times and Time Zones

All times are in EST time to prevent confusion due to time zone crossing. See the N682RW flight status page for this flight to view local times or setup timezone preferences in your user account.

Time Position Orientation Groundspeed Altitude Reporting Facility
EST Latitude Longitude Course Direction KTS MPH feet Rate Location/Type
Wed 01:41:58 PM 42.2028 -83.3553 179° South 175 201 1,300  Level Cleveland Center
Wed 01:42:47 PM 42.1525 -83.3539 179° South 251 289 3,300 2,276 Climbing Cleveland Center
Wed 01:42:56 PM 42.1525 -83.3547 270° West 224 258 3,500 3,803 Climbing Cleveland Center
Wed 01:43:58 PM 42.0786 -83.2992 151° Southeast 273 314 7,800 3,171 Climbing Cleveland Center
Wed 01:44:59 PM 42.0858 -83.1953 85° East 319 367 10,000 2,341 Climbing Cleveland Center
Wed 01:46:01 PM 42.1097 -83.0628 76° East 364 419 12,600 2,226 Climbing Cleveland Center
Wed 01:47:03 PM 42.1419 -82.8983 75° East 382 440 14,600 2,537 Climbing Cleveland Center
Wed 01:48:04 PM 42.1706 -82.7508 75° East 404 465 17,800 2,732 Climbing Cleveland Center
Wed 01:49:06 PM 42.1969 -82.5950 77° East 423 487 20,200 2,081 Climbing Cleveland Center
Wed 01:50:08 PM 42.1717 -82.4356 102° East 443 510 22,100 1,805 Climbing Cleveland Center
Wed 01:51:09 PM 42.1342 -82.2714 107° East 454 522 23,900 1,951 Climbing Cleveland Center
Wed 01:52:11 PM 42.0969 -82.0917 106° East 468 539 26,100 1,984 Climbing Cleveland Center
Wed 01:53:13 PM 42.0619 -81.9197 105° East 469 540 28,000 1,742 Climbing Cleveland Center
Wed 01:54:15 PM 42.0264 -81.7489 106° East 468 539 29,700 1,268 Climbing Cleveland Center
Wed 01:55:16 PM 41.9914 -81.5792 105° East 468 539 30,600 1,073 Climbing Cleveland Center
Wed 01:56:18 PM 41.9517 -81.3758 105° East 476 548 31,900 1,161 Climbing Cleveland Center
Wed 01:57:20 PM 41.9142 -81.2058 106° East 471 542 33,000 532 Climbing Cleveland Center
Wed 01:58:22 PM 41.8764 -81.0317 106° East 478 550 33,000  Level Cleveland Center
Wed 01:59:24 PM 41.8389 -80.8575 106° East 481 554 33,000  Level Cleveland Center
Wed 02:00:26 PM 41.8014 -80.6833 106° East 481 554 33,000  Level Cleveland Center
Wed 02:01:28 PM 41.7647 -80.5100 106° East 478 550 33,000  Level Cleveland Center
Wed 02:02:29 PM 41.7264 -80.3358 106° East 481 554 33,000  Level Cleveland Center
Wed 02:03:31 PM 41.6878 -80.1625 107° East 482 555 33,000  Level Cleveland Center
Wed 02:04:33 PM 41.6425 -79.9686 107° East 482 555 33,000  Level Cleveland Center
Wed 02:05:35 PM 41.6053 -79.7983 106° East 479 551 33,000  Level Cleveland Center
Wed 02:06:37 PM 41.5664 -79.6278 107° East 482 555 33,000  Level Cleveland Center
Wed 02:07:39 PM 41.5269 -79.4572 107° East 483 556 33,000  Level Cleveland Center
Wed 02:08:40 PM 41.4875 -79.2867 107° East 482 555 33,000  Level Cleveland Center
Wed 02:09:42 PM 41.4478 -79.1164 107° East 484 557 33,000  Level Cleveland Center
Wed 02:10:44 PM 41.3992 -78.9119 108° East 483 556 33,000  Level Cleveland Center
Wed 02:11:46 PM 41.3597 -78.7433 107° East 479 551 33,000  Level Cleveland Center
Wed 02:12:48 PM 41.3178 -78.5753 108° East 477 549 33,000  Level Cleveland Center
Wed 02:13:50 PM 41.2781 -78.4064 107° East 474 545 33,000  Level Cleveland Center
Wed 02:14:26 PM 41.2497 -78.2942 109° East 479 551 33,000  Level New York Center
Wed 02:15:26 PM 41.2122 -78.1272 107° East 479 551 33,000  Level New York Center
Wed 02:16:26 PM 41.1897 -77.9483 99° East 479 551 33,000  Level New York Center
Wed 02:17:26 PM 41.1672 -77.7694 99° East 484 557 33,000  Level New York Center
Wed 02:18:26 PM 41.1442 -77.5933 100° East 484 557 33,000 -550 Level New York Center
Wed 02:19:26 PM 41.1228 -77.4175 99° East 484 557 31,900 -1,400 Descending New York Center
Wed 02:20:26 PM 41.1006 -77.2556 100° East 489 563 30,200 -1,850 Descending New York Center
Wed 02:21:26 PM 41.0786 -77.0800 99° East 489 563 28,200 -1,950 Descending New York Center
Wed 02:22:26 PM 41.0528 -76.8989 101° East 489 563 26,300 -1,950 Descending New York Center
Wed 02:23:26 PM 41.0289 -76.7150 100° East 489 563 24,300 -2,250 Descending New York Center
Wed 02:24:26 PM 40.9956 -76.5472 105° East 484 557 21,800 -2,400 Descending New York Center
Wed 02:25:26 PM 40.9572 -76.3900 108° East 464 534 19,500 -2,000 Descending New York Center
Wed 02:26:26 PM 40.9186 -76.2331 108° East 429 494 17,800 -1,350 Descending New York Center
Wed 02:27:26 PM 40.8814 -76.0900 109° East 412 474 16,800 -1,300 Descending New York Center
Wed 02:28:26 PM 40.8481 -75.9475 107° East 412 474 15,200 -1,400 Descending New York Center
Wed 02:29:26 PM 40.8147 -75.8025 107° East 412 474 14,000 -1,100 Descending New York Center
Wed 02:30:26 PM 40.7808 -75.6683 108° East 406 467 13,000 -500 Descending New York Center
Wed 02:31:26 PM 40.7467 -75.5344 109° East 393 452 13,000 -200 Level New York Center
Wed 02:32:26 PM 40.7164 -75.4092 108° East 393 452 12,600 -850 Descending New York Center
Wed 02:33:26 PM 40.6922 -75.2761 103° East 383 441 11,300 -1,200 Descending New York Center
Wed 02:34:26 PM 40.6561 -75.1342 108° East 378 435 10,200 -650 Descending New York Center
Wed 02:35:26 PM 40.5906 -75.0397 132° Southeast 360 414 10,000 -100 Descending New York Center
Wed 02:36:26 PM 40.5486 -74.9361 118° Southeast 360 414 10,000  Level New York Center
Wed 02:37:26 PM 40.5053 -74.7997 113° Southeast 360 414 10,000  Level New York Center
Wed 02:38:26 PM 40.4714 -74.6914 112° Southeast 360 414 10,000  Level New York Center
Wed 02:39:37 PM 40.4333 -74.5333 108° East 357 411 10,000 -46 Level New York TRACON
Wed 02:40:37 PM 40.4667 -74.4167 69° East 347 399 9,900 -526 Descending New York TRACON
Wed 02:41:31 PM 40.4833 -74.3167 78° East 313 360 9,000 -1,158 Descending New York TRACON
Wed 02:42:31 PM 40.5167 -74.2000 69° East 299 344 7,700 -1,600 Descending New York TRACON
Wed 02:43:31 PM 40.5500 -74.1000 66° East 302 348 5,800 -1,700 Descending New York TRACON
Wed 02:44:31 PM 40.6000 -74.0500 37° Northeast 292 336 4,300 -900 Descending New York TRACON
Wed 02:45:31 PM 40.6833 -74.0500 360° North 279 321 4,000 -150 Descending New York TRACON
Wed 02:46:31 PM 40.7500 -74.0167 21° North 282 325 4,000  Level New York TRACON
Wed 02:47:31 PM 40.8167 -73.9667 30° Northeast 282 325 4,000 -400 Level New York TRACON
Wed 02:48:31 PM 40.8833 -73.9000 37° Northeast 277 319 3,200 -500 Descending New York TRACON
Wed 02:49:31 PM 40.9333 -73.8500 37° Northeast 220 253 3,000 -100 Descending New York TRACON
Wed 02:50:31 PM 40.9667 -73.8000 49° Northeast 214 246 3,000 -300 Level New York TRACON
Wed 02:51:31 PM 40.9333 -73.7667 143° Southeast 167 192 2,400 -667 Descending New York TRACON
Wed 02:52:37 PM 40.8833 -73.7833 194° South 164 189 1,600 -400 Descending New York TRACON
Wed 02:53:31 PM 40.8500 -73.8167 217° Southwest 163 188 1,600 -316 Level New York TRACON
Wed 02:54:31 PM 40.8167 -73.8333 201° Southwest 134 154 1,000 -500 Descending New York TRACON
Wed 02:55:31 PM 40.8000 -73.8833 246° West 140 161 600 -400 Descending New York TRACON

Login

Don't have an account? Register now (free) for customized features, flight alerts, and more!